createdAt,value
2022-09-07T00:00:27.133Z,3.85
2022-09-07T00:02:54.135Z,4.38
2022-09-07T00:05:20.882Z,3.95
2022-09-07T00:07:47.870Z,3.28
2022-09-07T00:10:15.045Z,2.55
2022-09-07T00:12:41.822Z,2.45
2022-09-07T00:15:12.211Z,2.58
2022-09-07T00:17:39.651Z,1.98
2022-09-07T00:20:08.733Z,1.83
2022-09-07T00:22:36.161Z,2.00
2022-09-07T00:25:05.463Z,1.73
2022-09-07T00:27:32.392Z,1.73
2022-09-07T00:29:59.177Z,1.83
2022-09-07T00:32:27.300Z,2.10
2022-09-07T00:34:53.980Z,2.08
2022-09-07T00:37:20.784Z,2.53
2022-09-07T00:39:47.818Z,2.30
2022-09-07T00:42:14.774Z,2.28
2022-09-07T00:45:00.927Z,2.72
2022-09-07T00:47:34.105Z,2.92
2022-09-07T00:50:04.042Z,3.28
2022-09-07T00:52:31.513Z,3.13
2022-09-07T00:55:00.387Z,2.95
2022-09-07T00:57:28.231Z,3.28
2022-09-07T00:59:56.269Z,3.83
2022-09-07T01:02:24.039Z,3.92
2022-09-07T01:05:00.424Z,4.15
2022-09-07T01:07:27.332Z,4.30
2022-09-07T01:09:55.546Z,3.95
2022-09-07T01:12:22.414Z,3.85
2022-09-07T01:14:51.970Z,3.80
2022-09-07T01:17:24.102Z,4.13
2022-09-07T01:20:20.511Z,4.35
2022-09-07T01:23:21.092Z,4.03
2022-09-07T01:26:00.781Z,4.30
2022-09-07T01:28:30.264Z,4.43
2022-09-07T01:30:59.383Z,4.15
2022-09-07T01:33:35.865Z,4.20
2022-09-07T01:36:10.569Z,4.15
2022-09-07T01:38:39.054Z,3.90
2022-09-07T01:41:10.298Z,3.80
2022-09-07T01:43:41.804Z,3.97
2022-09-07T01:46:14.754Z,4.13
2022-09-07T01:48:43.791Z,3.90
2022-09-07T01:51:11.634Z,3.90
2022-09-07T01:53:41.575Z,4.10
2022-09-07T01:56:11.822Z,4.75
2022-09-07T01:58:43.903Z,4.45
2022-09-07T02:01:13.176Z,4.05
2022-09-07T02:03:43.426Z,4.22
2022-09-07T02:06:13.992Z,4.22
2022-09-07T02:08:44.177Z,4.45
2022-09-07T02:11:14.405Z,3.85
2022-09-07T02:13:46.207Z,4.43
2022-09-07T02:16:15.525Z,4.75
2022-09-07T02:18:45.985Z,3.80
2022-09-07T02:21:15.266Z,5.10
2022-09-07T02:23:44.964Z,3.65
2022-09-07T02:26:15.687Z,4.30
2022-09-07T02:28:44.174Z,3.80
2022-09-07T02:31:11.039Z,4.20
2022-09-07T02:33:37.928Z,3.80
2022-09-07T02:36:05.507Z,3.85
2022-09-07T02:38:32.720Z,3.33
2022-09-07T02:41:00.935Z,4.15
2022-09-07T02:43:28.778Z,4.00
2022-09-07T02:46:07.546Z,3.97
2022-09-07T02:48:42.611Z,3.95
2022-09-07T02:51:15.723Z,3.78
2022-09-07T02:54:13.194Z,4.40
2022-09-07T02:56:49.784Z,3.97
2022-09-07T02:59:26.753Z,4.32
2022-09-07T03:02:00.543Z,4.75
2022-09-07T03:04:34.189Z,4.20
2022-09-07T03:07:04.903Z,3.83
2022-09-07T03:09:37.829Z,4.53
2022-09-07T03:12:05.502Z,4.47
2022-09-07T03:14:33.778Z,5.15
2022-09-07T03:17:02.853Z,4.32
2022-09-07T03:19:29.584Z,4.45
2022-09-07T03:21:56.363Z,4.78
2022-09-07T03:24:23.090Z,4.28
2022-09-07T03:26:51.390Z,3.90
2022-09-07T03:29:19.148Z,4.25
2022-09-07T03:31:46.270Z,4.53
2022-09-07T03:34:14.402Z,4.28
2022-09-07T03:36:41.578Z,3.58
2022-09-07T03:39:10.337Z,4.00
2022-09-07T03:41:37.222Z,4.18
2022-09-07T03:44:05.205Z,4.65
2022-09-07T03:46:32.205Z,3.58
2022-09-07T03:48:59.030Z,4.05
2022-09-07T03:51:27.205Z,4.82
2022-09-07T03:53:54.727Z,4.57
2022-09-07T03:56:23.122Z,4.65
2022-09-07T03:58:50.874Z,4.70
2022-09-07T04:01:20.050Z,4.57
2022-09-07T04:03:47.103Z,4.72
2022-09-07T04:06:14.219Z,5.50
2022-09-07T04:08:42.889Z,5.60
2022-09-07T04:11:13.189Z,5.00
2022-09-07T04:13:40.316Z,5.53
2022-09-07T04:16:11.665Z,5.65
2022-09-07T04:18:38.446Z,5.97
2022-09-07T04:21:05.364Z,6.00
2022-09-07T04:23:32.379Z,6.38
2022-09-07T04:26:00.549Z,7.05
2022-09-07T04:28:27.347Z,7.65
2022-09-07T04:30:54.160Z,8.85
2022-09-07T04:33:21.640Z,8.10
2022-09-07T04:35:48.453Z,8.57
2022-09-07T04:38:16.830Z,8.57
2022-09-07T04:40:44.078Z,9.02
2022-09-07T04:43:13.227Z,9.07
2022-09-07T04:45:40.382Z,8.45
2022-09-07T04:48:07.915Z,8.90
2022-09-07T04:50:34.678Z,8.02
2022-09-07T04:53:01.455Z,8.65
2022-09-07T04:55:28.222Z,8.85
2022-09-07T04:57:55.191Z,8.38
2022-09-07T05:00:23.364Z,9.13
2022-09-07T05:02:50.329Z,8.85
2022-09-07T05:05:17.206Z,8.63
2022-09-07T05:07:44.259Z,9.73
2022-09-07T05:10:11.272Z,9.70
2022-09-07T05:12:38.068Z,10.27
2022-09-07T05:15:05.859Z,10.70
2022-09-07T05:17:34.059Z,12.00
2022-09-07T05:20:00.982Z,11.68
2022-09-07T05:22:27.828Z,11.07
2022-09-07T05:24:54.550Z,12.10
2022-09-07T05:27:21.306Z,11.30
2022-09-07T05:30:04.479Z,11.73
2022-09-07T05:32:36.215Z,11.57
2022-09-07T05:35:02.974Z,11.43
2022-09-07T05:37:29.746Z,11.75
2022-09-07T05:39:56.908Z,12.02
2022-09-07T05:42:23.915Z,12.88
2022-09-07T05:44:50.969Z,13.70
2022-09-07T05:47:17.742Z,12.85
2022-09-07T05:49:45.943Z,14.23
2022-09-07T05:52:12.927Z,13.52
2022-09-07T05:54:40.204Z,13.88
2022-09-07T05:57:07.436Z,13.20
2022-09-07T05:59:34.312Z,13.75
2022-09-07T06:02:02.002Z,14.43
2022-09-07T06:04:28.821Z,13.07
2022-09-07T06:07:20.513Z,14.05
2022-09-07T06:12:30.254Z,13.93
2022-09-07T06:14:57.009Z,13.85
2022-09-07T06:17:23.871Z,13.32
2022-09-07T06:19:50.589Z,13.45
2022-09-07T06:22:18.689Z,13.30
2022-09-07T06:24:45.388Z,13.27
2022-09-07T06:27:12.129Z,12.95
2022-09-07T06:29:38.794Z,14.05
2022-09-07T06:34:52.634Z,13.20
2022-09-07T06:37:20.718Z,12.60
2022-09-07T06:39:48.970Z,12.27
2022-09-07T06:42:15.727Z,12.50
2022-09-07T06:44:42.487Z,12.82
2022-09-07T06:47:09.177Z,12.13
2022-09-07T06:49:35.839Z,13.05
2022-09-07T06:52:03.183Z,12.18
2022-09-07T06:57:17.948Z,11.75
2022-09-07T06:59:44.633Z,12.73
2022-09-07T07:02:12.914Z,12.90
2022-09-07T07:04:41.044Z,13.90
2022-09-07T07:07:10.643Z,13.95
2022-09-07T07:09:39.022Z,15.18
2022-09-07T07:12:05.894Z,15.27
2022-09-07T07:14:35.533Z,15.43
2022-09-07T07:17:03.228Z,16.17
2022-09-07T07:19:29.996Z,17.05
2022-09-07T07:24:44.891Z,17.85
2022-09-07T07:27:12.067Z,18.98
2022-09-07T07:29:38.735Z,18.13
2022-09-07T07:32:05.703Z,19.20
2022-09-07T07:34:33.197Z,19.50
2022-09-07T07:36:59.921Z,20.80
2022-09-07T07:42:14.921Z,20.88
2022-09-07T07:44:41.567Z,21.42
2022-09-07T07:47:08.285Z,19.10
2022-09-07T07:49:34.998Z,21.85
2022-09-07T07:54:48.724Z,21.92
2022-09-07T07:57:19.484Z,19.70
2022-09-07T07:59:46.283Z,20.50
2022-09-07T08:02:15.031Z,21.60
2022-09-07T08:04:41.865Z,21.00
2022-09-07T08:07:11.138Z,20.77
2022-09-07T08:09:39.820Z,20.45
2022-09-07T08:12:06.679Z,19.60
2022-09-07T08:14:36.643Z,19.85
2022-09-07T08:17:03.267Z,19.23
2022-09-07T08:19:29.927Z,20.20
2022-09-07T08:21:56.724Z,19.63
2022-09-07T08:24:23.626Z,18.85
2022-09-07T08:26:50.423Z,18.67
2022-09-07T08:29:17.086Z,17.30
2022-09-07T08:31:45.217Z,16.48
2022-09-07T08:34:11.950Z,16.58
2022-09-07T08:36:38.627Z,16.92
2022-09-07T08:39:05.334Z,16.65
2022-09-07T08:41:46.894Z,16.00
2022-09-07T08:44:18.770Z,14.90
2022-09-07T08:46:50.316Z,15.93
2022-09-07T08:49:20.423Z,13.10
2022-09-07T08:51:50.114Z,12.52
2022-09-07T08:54:17.579Z,12.30
2022-09-07T08:59:41.868Z,11.00
2022-09-07T09:02:35.112Z,10.20
2022-09-07T09:05:19.805Z,10.57
2022-09-07T09:07:55.370Z,8.75
2022-09-07T09:10:28.249Z,8.02
2022-09-07T09:13:05.294Z,8.70
2022-09-07T09:15:41.179Z,5.80
2022-09-07T09:18:18.575Z,6.60
2022-09-07T09:20:49.216Z,7.07
2022-09-07T09:23:18.648Z,5.68
2022-09-07T09:25:50.805Z,6.22
2022-09-07T09:28:17.851Z,5.18
2022-09-07T09:30:44.926Z,4.95
2022-09-07T09:33:18.207Z,3.40
2022-09-07T09:35:45.730Z,3.83
2022-09-07T09:38:34.084Z,4.32
2022-09-07T09:41:04.614Z,5.10
2022-09-07T09:43:38.701Z,4.03
2022-09-07T09:46:16.093Z,4.00
2022-09-07T09:48:50.371Z,3.65
2022-09-07T09:54:06.451Z,4.03
2022-09-07T09:56:38.397Z,3.47
2022-09-07T10:05:27.207Z,2.10
2022-09-07T10:07:54.085Z,1.63
2022-09-07T10:10:21.122Z,1.92
2022-09-07T10:12:47.889Z,1.83
2022-09-07T10:15:25.955Z,2.28
2022-09-07T10:17:52.703Z,1.65
2022-09-07T10:20:37.563Z,1.77
2022-09-07T10:23:06.170Z,1.65
2022-09-07T10:25:36.233Z,1.88
2022-09-07T10:28:16.822Z,1.85
2022-09-07T10:30:55.602Z,1.67
2022-09-07T10:33:26.876Z,1.80
2022-09-07T10:36:00.573Z,2.22
2022-09-07T10:38:30.421Z,1.98
2022-09-07T10:41:01.429Z,2.00
2022-09-07T10:43:38.791Z,1.88
2022-09-07T10:46:56.197Z,1.50
2022-09-07T10:49:12.939Z,1.90
2022-09-07T10:51:46.143Z,1.40
2022-09-07T10:54:34.834Z,1.27
2022-09-07T10:57:09.242Z,1.48
2022-09-07T11:02:39.229Z,1.33
2022-09-07T11:05:14.619Z,1.67
2022-09-07T11:08:00.541Z,1.10
2022-09-07T11:10:33.071Z,1.48
2022-09-07T11:13:02.015Z,1.60
2022-09-07T11:15:30.819Z,1.17
2022-09-07T11:18:01.389Z,1.27
2022-09-07T11:20:31.095Z,1.40
2022-09-07T11:23:04.639Z,1.05
2022-09-07T11:25:34.133Z,1.23
2022-09-07T11:28:04.014Z,1.55
2022-09-07T11:30:32.987Z,1.10
2022-09-07T11:33:03.447Z,1.30
2022-09-07T11:35:41.073Z,1.05
2022-09-07T11:38:25.623Z,0.95
2022-09-07T11:41:15.945Z,1.10
2022-09-07T11:43:45.311Z,0.90
2022-09-07T11:46:14.960Z,1.08
2022-09-07T11:48:43.847Z,0.90
2022-09-07T11:51:15.316Z,0.80
2022-09-07T11:53:45.905Z,0.68
2022-09-07T11:56:15.210Z,1.15
2022-09-07T11:58:58.070Z,1.23
2022-09-07T12:01:32.570Z,0.90
2022-09-07T12:04:32.416Z,0.90
2022-09-07T12:07:16.325Z,1.10
2022-09-07T12:09:58.225Z,0.88
2022-09-07T12:12:47.785Z,1.10
2022-09-07T12:15:24.345Z,0.90
2022-09-07T12:18:02.054Z,1.40
2022-09-07T12:20:39.467Z,0.80
2022-09-07T12:23:20.958Z,0.90
2022-09-07T12:25:50.731Z,0.70
2022-09-07T12:28:24.009Z,0.82
2022-09-07T12:30:59.722Z,0.90
2022-09-07T12:33:31.656Z,0.90
2022-09-07T12:36:00.816Z,0.80
2022-09-07T12:38:59.786Z,0.73
2022-09-07T12:41:41.559Z,0.88
2022-09-07T12:44:15.898Z,0.90
2022-09-07T12:46:46.707Z,1.00
2022-09-07T12:49:49.425Z,0.65
2022-09-07T12:52:31.431Z,1.10
2022-09-07T12:55:26.622Z,0.70
2022-09-07T12:58:01.972Z,1.20
2022-09-07T13:00:35.254Z,0.98
2022-09-07T13:11:47.989Z,1.05
2022-09-07T13:14:23.215Z,1.00
2022-09-07T13:17:41.663Z,0.85
2022-09-07T13:20:30.054Z,0.80
2022-09-07T13:23:22.610Z,1.08
2022-09-07T13:25:54.460Z,0.73
2022-09-07T13:28:25.537Z,0.70
2022-09-07T13:31:02.248Z,0.90
2022-09-07T13:33:50.455Z,0.90
2022-09-07T13:36:25.479Z,0.90
2022-09-07T13:41:21.822Z,0.60
2022-09-07T13:43:49.642Z,0.60
2022-09-07T13:46:32.729Z,0.68
2022-09-07T13:49:06.984Z,0.80
2022-09-07T13:51:38.592Z,0.63
2022-09-07T13:54:10.797Z,0.70
2022-09-07T13:56:41.550Z,0.70
2022-09-07T13:59:12.710Z,0.60
2022-09-07T14:01:45.539Z,0.60
2022-09-07T14:04:21.369Z,0.77
2022-09-07T14:06:48.211Z,0.80
2022-09-07T14:09:16.903Z,0.93
2022-09-07T14:11:45.315Z,1.10
2022-09-07T14:14:14.477Z,0.85
2022-09-07T14:16:44.763Z,0.90
2022-09-07T14:19:15.447Z,0.77
2022-09-07T14:21:42.350Z,1.00
2022-09-07T14:24:19.791Z,1.10
2022-09-07T14:26:48.036Z,1.30
2022-09-07T14:29:27.025Z,0.80
2022-09-07T14:31:55.089Z,0.75
2022-09-07T14:34:23.398Z,1.30
2022-09-07T14:36:51.101Z,1.00
2022-09-07T14:39:19.462Z,0.98
2022-09-07T14:41:46.536Z,1.15
2022-09-07T14:44:28.666Z,0.80
2022-09-07T14:46:57.530Z,0.90
2022-09-07T14:49:24.536Z,0.52
2022-09-07T14:51:52.142Z,1.33
2022-09-07T14:54:20.254Z,0.90
2022-09-07T14:57:01.123Z,0.75
2022-09-07T14:59:36.527Z,0.57
2022-09-07T15:02:25.261Z,0.77
2022-09-07T15:05:23.204Z,0.77
2022-09-07T15:07:52.183Z,0.98
2022-09-07T15:10:37.208Z,0.77
2022-09-07T15:13:06.147Z,0.55
2022-09-07T15:15:34.350Z,0.75
2022-09-07T15:18:08.778Z,0.77
2022-09-07T15:20:38.211Z,0.85
2022-09-07T15:23:06.392Z,0.75
2022-09-07T15:25:34.183Z,0.75
2022-09-07T15:28:00.970Z,0.80
2022-09-07T15:30:27.883Z,0.70
2022-09-07T15:32:55.733Z,1.05
2022-09-07T15:35:24.953Z,0.88
2022-09-07T15:38:59.548Z,1.00
2022-09-07T15:41:03.699Z,0.93
2022-09-07T15:43:29.373Z,1.13
2022-09-07T15:45:56.393Z,1.08
2022-09-07T15:48:27.215Z,0.90
2022-09-07T15:51:01.562Z,1.00
2022-09-07T15:56:16.223Z,0.70
2022-09-07T15:58:43.731Z,0.90
2022-09-07T16:03:59.086Z,0.80
2022-09-07T16:06:27.570Z,1.10
2022-09-07T16:08:55.291Z,0.90
2022-09-07T16:11:24.558Z,0.90
2022-09-07T16:13:55.958Z,0.60
2022-09-07T16:16:23.043Z,1.10
2022-09-07T16:18:50.015Z,0.85
2022-09-07T16:21:17.384Z,1.10
2022-09-07T16:23:47.920Z,1.42
2022-09-07T16:26:16.328Z,1.23
2022-09-07T16:28:44.784Z,1.10
2022-09-07T16:31:14.319Z,1.05
2022-09-07T16:33:41.130Z,0.65
2022-09-07T16:36:10.512Z,1.00
2022-09-07T16:38:45.474Z,0.93
2022-09-07T16:41:15.000Z,1.00
2022-09-07T16:43:41.881Z,1.40
2022-09-07T16:46:11.413Z,1.08
2022-09-07T16:48:38.118Z,1.30
2022-09-07T16:51:05.287Z,1.10
2022-09-07T16:53:34.263Z,0.80
2022-09-07T16:56:01.859Z,1.20
2022-09-07T16:58:38.283Z,0.90
2022-09-07T17:01:05.666Z,0.73
2022-09-07T17:03:32.802Z,1.23
2022-09-07T17:05:59.859Z,0.98
2022-09-07T17:08:26.689Z,1.10
2022-09-07T17:10:59.137Z,1.25
2022-09-07T17:13:25.802Z,1.30
2022-09-07T17:15:54.194Z,0.95
2022-09-07T17:19:28.893Z,1.17
2022-09-07T17:21:09.679Z,0.98
2022-09-07T17:23:45.623Z,0.88
2022-09-07T17:26:16.112Z,0.80
2022-09-07T17:28:44.262Z,0.95
2022-09-07T17:32:24.052Z,0.80
2022-09-07T17:34:00.809Z,1.27
2022-09-07T17:36:28.522Z,1.15
2022-09-07T17:41:44.991Z,1.10
2022-09-07T17:44:11.637Z,1.17
2022-09-07T17:46:39.688Z,0.90
2022-09-07T17:49:11.177Z,1.10
2022-09-07T17:51:38.115Z,1.10
2022-09-07T17:54:13.166Z,1.05
2022-09-07T18:01:55.058Z,1.20
2022-09-07T18:04:22.122Z,0.95
2022-09-07T18:06:49.068Z,1.38
2022-09-07T18:09:16.154Z,1.05
2022-09-07T18:11:45.909Z,1.13
2022-09-07T18:14:14.446Z,0.90
2022-09-07T18:16:41.792Z,0.93
2022-09-07T18:19:11.150Z,1.10
2022-09-07T18:21:41.049Z,1.15
2022-09-07T18:24:13.505Z,1.05
2022-09-07T18:26:41.148Z,1.05
2022-09-07T18:29:26.024Z,1.23
2022-09-07T18:31:54.365Z,1.20
2022-09-07T18:34:22.843Z,1.00
2022-09-07T18:36:49.592Z,1.02
2022-09-07T18:39:16.338Z,1.05
2022-09-07T18:41:43.096Z,1.27
2022-09-07T18:46:56.555Z,1.15
2022-09-07T18:49:24.946Z,0.80
2022-09-07T18:54:38.717Z,0.98
2022-09-07T18:57:06.720Z,1.40
2022-09-07T18:59:33.883Z,1.30
2022-09-07T19:02:04.339Z,0.90
2022-09-07T19:07:20.962Z,1.08
2022-09-07T19:09:48.327Z,0.70
2022-09-07T19:12:15.208Z,0.93
2022-09-07T19:14:42.336Z,1.20
2022-09-07T19:17:11.093Z,0.80
2022-09-07T19:19:39.651Z,1.00
2022-09-07T19:22:06.567Z,1.00
2022-09-07T19:24:33.526Z,0.85
2022-09-07T19:27:00.914Z,1.05
2022-09-07T19:29:28.647Z,1.02
2022-09-07T19:32:04.800Z,1.20
2022-09-07T19:34:31.890Z,1.13
2022-09-07T19:37:00.452Z,1.30
2022-09-07T19:39:27.295Z,1.25
2022-09-07T19:41:54.372Z,1.50
2022-09-07T19:44:21.186Z,3.03
2022-09-07T19:46:48.026Z,1.50
2022-09-07T19:49:14.998Z,1.40
2022-09-07T19:51:42.361Z,1.48
2022-09-07T19:54:11.835Z,1.20
2022-09-07T19:56:39.932Z,1.63
2022-09-07T19:59:07.166Z,1.70
2022-09-07T20:01:35.108Z,1.05
2022-09-07T20:04:03.583Z,1.20
2022-09-07T20:06:32.926Z,1.08
2022-09-07T20:09:01.514Z,2.10
2022-09-07T20:11:29.710Z,3.63
2022-09-07T20:13:57.189Z,2.22
2022-09-07T20:16:25.021Z,1.80
2022-09-07T20:18:52.010Z,1.95
2022-09-07T20:21:21.301Z,1.58
2022-09-07T20:23:48.317Z,1.27
2022-09-07T20:26:16.581Z,1.60
2022-09-07T20:28:44.823Z,1.80
2022-09-07T20:31:13.618Z,1.55
2022-09-07T20:33:40.675Z,1.50
2022-09-07T20:36:08.973Z,1.50
2022-09-07T20:38:39.063Z,1.77
2022-09-07T20:41:06.079Z,2.08
2022-09-07T20:43:33.010Z,1.90
2022-09-07T20:46:01.288Z,2.03
2022-09-07T20:48:28.216Z,1.58
2022-09-07T20:50:55.778Z,1.83
2022-09-07T20:53:22.586Z,1.60
2022-09-07T20:55:49.493Z,1.48
2022-09-07T20:58:16.421Z,1.55
2022-09-07T21:00:43.247Z,1.42
2022-09-07T21:03:11.427Z,1.60
2022-09-07T21:05:38.693Z,1.77
2022-09-07T21:08:05.875Z,1.52
2022-09-07T21:10:32.614Z,2.13
2022-09-07T21:12:59.364Z,1.65
2022-09-07T21:15:26.109Z,1.42
2022-09-07T21:17:52.932Z,1.85
2022-09-07T21:20:21.146Z,1.70
2022-09-07T21:22:47.872Z,1.63
2022-09-07T21:25:14.787Z,1.75
2022-09-07T21:27:41.542Z,1.48
2022-09-07T21:30:09.404Z,1.50
2022-09-07T21:32:36.099Z,1.30
2022-09-07T21:35:02.760Z,1.38
2022-09-07T21:37:30.826Z,1.90
2022-09-07T21:39:58.108Z,1.80
2022-09-07T21:42:24.829Z,1.40
2022-09-07T21:44:51.524Z,1.90
2022-09-07T21:47:18.164Z,1.80
2022-09-07T21:49:44.842Z,1.80
2022-09-07T21:52:11.535Z,1.73
2022-09-07T21:54:39.592Z,1.55
2022-09-07T21:57:06.428Z,1.40
2022-09-07T21:59:33.091Z,2.00
2022-09-07T22:02:00.565Z,1.63
2022-09-07T22:04:27.291Z,1.80
2022-09-07T22:06:54.069Z,2.20
2022-09-07T22:09:20.998Z,1.75
2022-09-07T22:11:49.545Z,1.40
2022-09-07T22:14:16.257Z,1.42
2022-09-07T22:16:42.879Z,1.60
2022-09-07T22:19:09.562Z,1.30
2022-09-07T22:21:36.323Z,1.80
2022-09-07T22:24:04.719Z,1.92
2022-09-07T22:26:33.415Z,1.95
2022-09-07T22:29:01.446Z,2.15
2022-09-07T22:31:29.853Z,1.83
2022-09-07T22:33:57.644Z,1.80
2022-09-07T22:36:26.433Z,1.80
2022-09-07T22:38:55.664Z,1.92
2022-09-07T22:41:23.419Z,2.10
2022-09-07T22:43:52.690Z,2.00
2022-09-07T22:46:22.858Z,1.75
2022-09-07T22:48:50.212Z,2.13
2022-09-07T22:51:17.341Z,2.00
2022-09-07T22:53:44.248Z,1.80
2022-09-07T22:56:12.722Z,1.95
2022-09-07T22:58:39.662Z,2.53
2022-09-07T23:01:07.189Z,1.80
2022-09-07T23:03:35.472Z,2.13
2022-09-07T23:06:02.525Z,1.83
2022-09-07T23:08:29.945Z,1.80
2022-09-07T23:11:02.391Z,2.53
2022-09-07T23:13:29.191Z,2.10
2022-09-07T23:15:56.253Z,1.80
2022-09-07T23:18:23.052Z,2.05
2022-09-07T23:20:51.095Z,2.35
2022-09-07T23:23:18.016Z,2.20
2022-09-07T23:25:44.806Z,2.10
2022-09-07T23:28:12.379Z,2.03
2022-09-07T23:30:40.601Z,2.20
2022-09-07T23:33:07.420Z,2.10
2022-09-07T23:35:34.063Z,2.00
2022-09-07T23:38:02.454Z,2.63
2022-09-07T23:40:30.441Z,2.03
2022-09-07T23:42:57.399Z,1.83
2022-09-07T23:45:24.123Z,2.13
2022-09-07T23:47:50.840Z,2.35
2022-09-07T23:50:17.542Z,1.55
2022-09-07T23:52:44.275Z,2.00
2022-09-07T23:55:13.057Z,1.98
2022-09-07T23:57:39.768Z,1.95
